createdAt,value
2018-12-17T00:00:30.091Z,991.34
2018-12-17T00:01:30.088Z,991.33
2018-12-17T00:02:30.098Z,991.36
2018-12-17T00:03:30.096Z,991.38
2018-12-17T00:04:30.066Z,991.31
2018-12-17T00:05:30.599Z,991.32
2018-12-17T00:06:30.037Z,991.28
2018-12-17T00:07:30.047Z,991.23
2018-12-17T00:08:32.166Z,991.26
2018-12-17T00:09:30.033Z,991.29
2018-12-17T00:10:29.988Z,991.30
2018-12-17T00:11:29.972Z,991.31
2018-12-17T00:12:29.957Z,991.29
2018-12-17T00:13:30.006Z,991.26
2018-12-17T00:14:29.951Z,991.24
2018-12-17T00:15:29.937Z,991.24
2018-12-17T00:16:29.925Z,991.23
2018-12-17T00:17:29.922Z,991.25
2018-12-17T00:18:29.917Z,991.25
2018-12-17T00:19:29.908Z,991.23
2018-12-17T00:20:29.923Z,991.21
2018-12-17T00:21:29.861Z,991.27
2018-12-17T00:22:29.862Z,991.26
2018-12-17T00:23:29.865Z,991.23
2018-12-17T00:24:29.850Z,991.28
2018-12-17T00:25:29.819Z,991.30
2018-12-17T00:26:29.809Z,991.24
2018-12-17T00:27:29.801Z,991.30
2018-12-17T00:28:29.818Z,991.32
2018-12-17T00:29:29.806Z,991.30
2018-12-17T00:30:29.763Z,991.26
2018-12-17T00:31:29.752Z,991.34
2018-12-17T00:32:29.758Z,991.32
2018-12-17T00:33:29.759Z,991.34
2018-12-17T00:34:29.728Z,991.34
2018-12-17T00:35:29.704Z,991.28
2018-12-17T00:36:29.694Z,991.29
2018-12-17T00:37:29.702Z,991.28
2018-12-17T00:38:29.704Z,991.26
2018-12-17T00:39:29.666Z,991.32
2018-12-17T00:40:29.663Z,991.31
2018-12-17T00:41:29.644Z,991.30
2018-12-17T00:42:29.677Z,991.32
2018-12-17T00:43:29.619Z,991.29
2018-12-17T00:44:29.615Z,991.27
2018-12-17T00:45:29.675Z,991.25
2018-12-17T00:46:29.587Z,991.30
2018-12-17T00:47:29.580Z,991.27
2018-12-17T00:48:29.577Z,991.29
2018-12-17T00:49:29.566Z,991.29
2018-12-17T00:50:29.577Z,991.27
2018-12-17T00:51:29.622Z,991.25
2018-12-17T00:52:29.520Z,991.22
2018-12-17T00:53:29.520Z,991.29
2018-12-17T00:54:29.502Z,991.28
2018-12-17T00:55:29.487Z,991.31
2018-12-17T00:56:29.497Z,991.25
2018-12-17T00:57:29.539Z,991.32
2018-12-17T00:58:29.477Z,991.26
2018-12-17T00:59:29.446Z,991.33
2018-12-17T01:00:29.430Z,991.27
2018-12-17T01:01:29.459Z,991.28
2018-12-17T01:02:29.453Z,991.32
2018-12-17T01:03:29.396Z,991.28
2018-12-17T01:04:29.386Z,991.25
2018-12-17T01:05:29.386Z,991.27
2018-12-17T01:06:29.366Z,991.23
2018-12-17T01:07:29.379Z,991.29
2018-12-17T01:08:29.357Z,991.27
2018-12-17T01:09:29.339Z,991.28
2018-12-17T01:10:29.320Z,991.27
2018-12-17T01:11:29.315Z,991.30
2018-12-17T01:12:29.324Z,991.27
2018-12-17T01:13:29.293Z,991.29
2018-12-17T01:14:29.292Z,991.26
2018-12-17T01:15:29.274Z,991.21
2018-12-17T01:16:29.280Z,991.21
2018-12-17T01:17:29.260Z,991.26
2018-12-17T01:18:29.274Z,991.27
2018-12-17T01:19:29.223Z,991.23
2018-12-17T01:20:29.219Z,991.21
2018-12-17T01:21:29.206Z,991.20
2018-12-17T01:22:29.194Z,991.21
2018-12-17T01:23:29.214Z,991.18
2018-12-17T01:24:29.181Z,991.25
2018-12-17T01:25:29.185Z,991.26
2018-12-17T01:26:29.149Z,991.26
2018-12-17T01:27:29.141Z,991.29
2018-12-17T01:28:29.123Z,991.30
2018-12-17T01:29:29.128Z,991.27
2018-12-17T01:30:29.129Z,991.30
2018-12-17T01:31:29.095Z,991.32
2018-12-17T01:32:29.097Z,991.30
2018-12-17T01:33:29.072Z,991.36
2018-12-17T01:34:29.064Z,991.37
2018-12-17T01:35:29.076Z,991.39
2018-12-17T01:36:29.047Z,991.41
2018-12-17T01:37:29.025Z,991.37
2018-12-17T01:38:29.014Z,991.39
2018-12-17T01:39:29.054Z,991.37
2018-12-17T01:40:29.017Z,991.40
2018-12-17T01:41:28.991Z,991.38
2018-12-17T01:42:29.001Z,991.40
2018-12-17T01:43:28.957Z,991.43
2018-12-17T01:44:28.975Z,991.41
2018-12-17T01:45:28.951Z,991.42
2018-12-17T01:46:28.927Z,991.39
2018-12-17T01:47:28.981Z,991.45
2018-12-17T01:48:28.907Z,991.44
2018-12-17T01:49:28.928Z,991.46
2018-12-17T01:50:28.907Z,991.44
2018-12-17T01:51:28.871Z,991.53
2018-12-17T01:52:28.891Z,991.52
2018-12-17T01:53:28.850Z,991.51
2018-12-17T01:54:28.872Z,991.58
2018-12-17T01:55:28.829Z,991.54
2018-12-17T01:56:28.815Z,991.64
2018-12-17T01:57:28.807Z,991.59
2018-12-17T01:58:29.322Z,991.58
2018-12-17T01:59:28.785Z,991.59
2018-12-17T02:00:28.777Z,991.53
2018-12-17T02:01:28.767Z,991.55
2018-12-17T02:02:28.757Z,991.64
2018-12-17T02:03:28.783Z,991.58
2018-12-17T02:04:28.747Z,991.56
2018-12-17T02:05:28.728Z,991.60
2018-12-17T02:06:28.708Z,991.58
2018-12-17T02:07:28.726Z,991.56
2018-12-17T02:08:28.739Z,991.53
2018-12-17T02:09:28.698Z,991.59
2018-12-17T02:10:28.662Z,991.52
2018-12-17T02:11:28.714Z,991.56
2018-12-17T02:12:28.663Z,991.52
2018-12-17T02:13:28.632Z,991.49
2018-12-17T02:14:28.618Z,991.50
2018-12-17T02:15:28.616Z,991.44
2018-12-17T02:16:28.623Z,991.40
2018-12-17T02:17:28.597Z,991.42
2018-12-17T02:18:28.584Z,991.42
2018-12-17T02:19:28.628Z,991.43
2018-12-17T02:20:28.550Z,991.42
2018-12-17T02:21:28.543Z,991.45
2018-12-17T02:22:28.539Z,991.43
2018-12-17T02:23:28.527Z,991.48
2018-12-17T02:24:28.556Z,991.47
2018-12-17T02:25:28.513Z,991.46
2018-12-17T02:26:28.492Z,991.55
2018-12-17T02:27:28.472Z,991.58
2018-12-17T02:28:28.505Z,991.56
2018-12-17T02:29:28.503Z,991.51
2018-12-17T02:30:28.444Z,991.52
2018-12-17T02:31:28.439Z,991.50
2018-12-17T02:32:28.423Z,991.48
2018-12-17T02:33:28.409Z,991.52
2018-12-17T02:34:28.465Z,991.47
2018-12-17T02:35:28.386Z,991.49
2018-12-17T02:36:28.373Z,991.50
2018-12-17T02:37:28.396Z,991.50
2018-12-17T02:38:28.360Z,991.53
2018-12-17T02:39:28.353Z,991.52
2018-12-17T02:40:28.362Z,991.51
2018-12-17T02:41:28.331Z,991.56
2018-12-17T02:42:28.343Z,991.54
2018-12-17T02:43:28.303Z,991.57
2018-12-17T02:44:28.294Z,991.60
2018-12-17T02:45:28.291Z,991.63
2018-12-17T02:46:28.291Z,991.67
2018-12-17T02:47:28.260Z,991.69
2018-12-17T02:48:28.269Z,991.73
2018-12-17T02:49:28.242Z,991.74
2018-12-17T02:50:28.232Z,991.76
2018-12-17T02:51:28.208Z,991.77
2018-12-17T02:52:28.224Z,991.84
2018-12-17T02:53:28.216Z,991.85
2018-12-17T02:54:28.176Z,991.81
2018-12-17T02:55:28.166Z,991.85
2018-12-17T02:56:28.159Z,991.90
2018-12-17T02:57:28.169Z,991.88
2018-12-17T02:58:28.175Z,991.91
2018-12-17T02:59:28.138Z,991.97
2018-12-17T03:00:28.127Z,991.93
2018-12-17T03:01:28.111Z,991.96
2018-12-17T03:02:28.114Z,992.00
2018-12-17T03:03:28.091Z,992.02
2018-12-17T03:04:28.069Z,991.98
2018-12-17T03:05:28.053Z,992.00
2018-12-17T03:06:28.047Z,991.95
2018-12-17T03:07:28.066Z,991.91
2018-12-17T03:08:28.028Z,991.91
2018-12-17T03:09:28.022Z,991.92
2018-12-17T03:10:28.000Z,991.92
2018-12-17T03:11:28.004Z,991.93
2018-12-17T03:12:28.006Z,991.93
2018-12-17T03:13:27.984Z,991.93
2018-12-17T03:14:27.977Z,991.96
2018-12-17T03:15:27.948Z,991.92
2018-12-17T03:16:27.962Z,991.97
2018-12-17T03:17:27.956Z,992.01
2018-12-17T03:18:27.927Z,992.00
2018-12-17T03:19:27.908Z,992.01
2018-12-17T03:20:27.890Z,992.05
2018-12-17T03:21:27.878Z,992.03
2018-12-17T03:22:27.930Z,992.03
2018-12-17T03:23:27.873Z,992.06
2018-12-17T03:24:27.865Z,992.08
2018-12-17T03:25:27.860Z,992.12
2018-12-17T03:26:27.825Z,992.11
2018-12-17T03:27:27.816Z,992.11
2018-12-17T03:28:27.846Z,992.11
2018-12-17T03:29:27.791Z,992.06
2018-12-17T03:30:27.792Z,992.10
2018-12-17T03:31:27.771Z,992.08
2018-12-17T03:32:27.760Z,992.01
2018-12-17T03:33:27.776Z,992.04
2018-12-17T03:34:27.738Z,992.07
2018-12-17T03:35:27.765Z,992.11
2018-12-17T03:36:27.715Z,992.00
2018-12-17T03:37:27.705Z,992.03
2018-12-17T03:38:27.706Z,992.00
2018-12-17T03:39:27.689Z,991.98
2018-12-17T03:40:27.721Z,992.00
2018-12-17T03:41:27.706Z,992.04
2018-12-17T03:42:27.649Z,991.96
2018-12-17T03:43:27.650Z,992.01
2018-12-17T03:44:27.636Z,992.00
2018-12-17T03:45:27.629Z,991.96
2018-12-17T03:46:27.643Z,992.03
2018-12-17T03:47:27.654Z,992.00
2018-12-17T03:48:27.616Z,992.01
2018-12-17T03:49:27.599Z,992.03
2018-12-17T03:50:27.564Z,991.97
2018-12-17T03:51:27.600Z,992.08
2018-12-17T03:52:27.555Z,992.03
2018-12-17T03:53:27.568Z,992.01
2018-12-17T03:54:27.528Z,992.04
2018-12-17T03:55:27.504Z,992.01
2018-12-17T03:56:27.529Z,992.05
2018-12-17T03:57:27.510Z,992.02
2018-12-17T03:58:27.481Z,992.07
2018-12-17T03:59:27.475Z,992.04
2018-12-17T04:00:27.459Z,992.02
2018-12-17T04:01:27.444Z,992.02
2018-12-17T04:02:27.465Z,992.06
2018-12-17T04:03:27.421Z,992.07
2018-12-17T04:04:27.426Z,992.04
2018-12-17T04:05:27.407Z,992.03
2018-12-17T04:06:27.431Z,992.07
2018-12-17T04:07:27.393Z,992.07
2018-12-17T04:08:27.374Z,992.07
2018-12-17T04:09:27.361Z,992.09
2018-12-17T04:10:27.361Z,992.05
2018-12-17T04:11:27.394Z,992.08
2018-12-17T04:12:27.324Z,992.05
2018-12-17T04:13:27.320Z,992.10
2018-12-17T04:14:27.299Z,992.12
2018-12-17T04:15:27.340Z,992.11
2018-12-17T04:16:27.310Z,992.07
2018-12-17T04:17:27.277Z,992.04
2018-12-17T04:18:27.292Z,992.07
2018-12-17T04:19:27.264Z,992.08
2018-12-17T04:20:27.239Z,992.05
2018-12-17T04:21:27.250Z,992.10
2018-12-17T04:22:27.218Z,992.03
2018-12-17T04:23:27.214Z,992.06
2018-12-17T04:24:27.197Z,992.07
2018-12-17T04:25:27.226Z,992.07
2018-12-17T04:26:27.182Z,992.10
2018-12-17T04:27:27.160Z,992.10
2018-12-17T04:28:27.187Z,992.09
2018-12-17T04:29:27.180Z,992.09
2018-12-17T04:30:27.130Z,992.07
2018-12-17T04:31:27.669Z,992.10
2018-12-17T04:32:27.102Z,992.08
2018-12-17T04:33:27.111Z,992.13
2018-12-17T04:34:27.142Z,992.15
2018-12-17T04:35:27.071Z,992.19
2018-12-17T04:36:27.063Z,992.15
2018-12-17T04:37:27.097Z,992.19
2018-12-17T04:38:27.041Z,992.15
2018-12-17T04:39:27.062Z,992.17
2018-12-17T04:40:27.019Z,992.15
2018-12-17T04:41:27.023Z,992.19
2018-12-17T04:42:27.037Z,992.20
2018-12-17T04:43:27.011Z,992.25
2018-12-17T04:44:26.991Z,992.17
2018-12-17T04:45:26.967Z,992.14
2018-12-17T04:46:26.987Z,992.18
2018-12-17T04:47:27.063Z,992.18
2018-12-17T04:48:26.937Z,992.16
2018-12-17T04:49:26.918Z,992.14
2018-12-17T04:50:27.180Z,992.15
2018-12-17T04:51:26.942Z,992.15
2018-12-17T04:52:26.896Z,992.18
2018-12-17T04:53:26.875Z,992.26
2018-12-17T04:54:26.880Z,992.27
2018-12-17T04:55:26.897Z,992.27
2018-12-17T04:56:26.868Z,992.28
2018-12-17T04:57:26.831Z,992.25
2018-12-17T04:58:26.855Z,992.30
2018-12-17T04:59:26.839Z,992.31
2018-12-17T05:00:26.836Z,992.34
2018-12-17T05:01:26.815Z,992.33
2018-12-17T05:02:26.781Z,992.37
2018-12-17T05:03:26.778Z,992.35
2018-12-17T05:04:26.801Z,992.37
2018-12-17T05:05:26.748Z,992.40
2018-12-17T05:06:26.739Z,992.45
2018-12-17T05:07:26.726Z,992.39
2018-12-17T05:08:26.720Z,992.44
2018-12-17T05:09:26.726Z,992.43
2018-12-17T05:10:26.707Z,992.46
2018-12-17T05:11:26.702Z,992.52
2018-12-17T05:12:26.672Z,992.47
2018-12-17T05:13:26.675Z,992.51
2018-12-17T05:14:26.670Z,992.50
2018-12-17T05:15:26.672Z,992.45
2018-12-17T05:16:26.625Z,992.53
2018-12-17T05:17:26.623Z,992.51
2018-12-17T05:18:26.606Z,992.51
2018-12-17T05:19:26.648Z,992.54
2018-12-17T05:20:26.581Z,992.56
2018-12-17T05:21:26.581Z,992.51
2018-12-17T05:22:26.564Z,992.57
2018-12-17T05:23:26.565Z,992.58
2018-12-17T05:24:26.571Z,992.58
2018-12-17T05:25:26.531Z,992.57
2018-12-17T05:26:26.518Z,992.63
2018-12-17T05:27:26.503Z,992.60
2018-12-17T05:28:26.493Z,992.63
2018-12-17T05:29:26.509Z,992.63
2018-12-17T05:30:26.499Z,992.65
2018-12-17T05:31:26.476Z,992.64
2018-12-17T05:32:26.448Z,992.69
2018-12-17T05:33:26.444Z,992.70
2018-12-17T05:34:26.439Z,992.72
2018-12-17T05:35:26.455Z,992.74
2018-12-17T05:36:26.409Z,992.74
2018-12-17T05:37:26.406Z,992.72
2018-12-17T05:38:26.400Z,992.74
2018-12-17T05:39:26.380Z,992.79
2018-12-17T05:40:26.390Z,992.73
2018-12-17T05:41:26.352Z,992.75
2018-12-17T05:42:26.340Z,992.78
2018-12-17T05:43:26.331Z,992.81
2018-12-17T05:44:26.353Z,992.80
2018-12-17T05:45:26.453Z,992.79
2018-12-17T05:46:26.335Z,992.82
2018-12-17T05:47:26.300Z,992.83
2018-12-17T05:48:26.275Z,992.88
2018-12-17T05:49:26.265Z,992.92
2018-12-17T05:50:26.284Z,992.87
2018-12-17T05:51:26.251Z,992.90
2018-12-17T05:52:26.240Z,992.92
2018-12-17T05:53:26.240Z,992.93
2018-12-17T05:54:26.241Z,992.93
2018-12-17T05:55:26.206Z,992.85
2018-12-17T05:56:26.242Z,992.90
2018-12-17T05:57:26.194Z,992.91
2018-12-17T05:58:26.204Z,992.94
2018-12-17T05:59:28.663Z,992.91
2018-12-17T06:00:26.187Z,992.99
2018-12-17T06:01:26.162Z,993.03
2018-12-17T06:02:26.156Z,992.96
2018-12-17T06:03:26.119Z,992.98
2018-12-17T06:04:26.109Z,992.97
2018-12-17T06:05:26.105Z,992.96
2018-12-17T06:06:26.116Z,992.98
2018-12-17T06:07:26.077Z,993.00
2018-12-17T06:08:26.154Z,993.00
2018-12-17T06:09:26.153Z,992.97
2018-12-17T06:10:26.149Z,992.97
2018-12-17T06:11:27.501Z,992.99
2018-12-17T06:12:26.132Z,992.98
2018-12-17T06:13:26.007Z,993.09
2018-12-17T06:14:25.996Z,993.06
2018-12-17T06:15:25.990Z,993.10
2018-12-17T06:16:26.058Z,993.06
2018-12-17T06:17:25.965Z,993.07
2018-12-17T06:18:25.954Z,993.06
2018-12-17T06:19:25.955Z,993.05
2018-12-17T06:20:25.931Z,993.04
2018-12-17T06:21:25.969Z,993.02
2018-12-17T06:22:25.917Z,993.11
2018-12-17T06:23:25.914Z,993.07
2018-12-17T06:24:25.887Z,993.08
2018-12-17T06:25:25.906Z,993.08
2018-12-17T06:26:25.895Z,993.05
2018-12-17T06:27:25.899Z,993.05
2018-12-17T06:28:25.849Z,993.01
2018-12-17T06:29:25.836Z,993.06
2018-12-17T06:30:25.824Z,993.04
2018-12-17T06:31:25.833Z,993.05
2018-12-17T06:32:25.827Z,993.04
2018-12-17T06:33:25.791Z,993.00
2018-12-17T06:34:25.780Z,993.09
2018-12-17T06:35:25.769Z,993.09
2018-12-17T06:36:25.793Z,993.11
2018-12-17T06:37:25.777Z,993.01
2018-12-17T06:38:25.770Z,993.08
2018-12-17T06:39:25.726Z,993.09
2018-12-17T06:40:25.722Z,993.11
2018-12-17T06:41:25.771Z,993.15
2018-12-17T06:42:25.696Z,993.20
2018-12-17T06:43:25.710Z,993.20
2018-12-17T06:44:25.670Z,993.19
2018-12-17T06:45:25.830Z,993.24
2018-12-17T06:46:25.705Z,993.23
2018-12-17T06:47:25.637Z,993.24
2018-12-17T06:48:25.628Z,993.25
2018-12-17T06:49:25.693Z,993.22
2018-12-17T06:50:25.623Z,993.23
2018-12-17T06:51:25.607Z,993.25
2018-12-17T06:52:25.582Z,993.22
2018-12-17T06:53:25.650Z,993.25
2018-12-17T06:54:25.590Z,993.29
2018-12-17T06:55:25.557Z,993.32
2018-12-17T06:56:25.559Z,993.34
2018-12-17T06:57:25.526Z,993.31
2018-12-17T06:58:25.522Z,993.38
2018-12-17T06:59:25.607Z,993.39
2018-12-17T07:00:25.525Z,993.42
2018-12-17T07:01:25.536Z,993.48
2018-12-17T07:02:25.507Z,993.43
2018-12-17T07:03:25.465Z,993.43
2018-12-17T07:04:25.497Z,993.54
2018-12-17T07:05:25.442Z,993.50
2018-12-17T07:06:25.947Z,993.50
2018-12-17T07:07:25.479Z,993.55
2018-12-17T07:08:25.415Z,993.55
2018-12-17T07:09:25.464Z,993.59
2018-12-17T07:10:25.413Z,993.57
2018-12-17T07:11:25.391Z,993.58
2018-12-17T07:12:25.395Z,993.57
2018-12-17T07:13:25.382Z,993.61
2018-12-17T07:14:25.358Z,993.64
2018-12-17T07:15:25.402Z,993.63
2018-12-17T07:16:25.344Z,993.67
2018-12-17T07:17:25.343Z,993.67
2018-12-17T07:18:25.344Z,993.70
2018-12-17T07:19:25.293Z,993.69
2018-12-17T07:20:25.358Z,993.69
2018-12-17T07:21:25.269Z,993.73
2018-12-17T07:22:25.270Z,993.75
2018-12-17T07:23:25.273Z,993.71
2018-12-17T07:24:25.235Z,993.77
2018-12-17T07:25:25.248Z,993.73
2018-12-17T07:26:25.215Z,993.79
2018-12-17T07:27:25.210Z,993.80
2018-12-17T07:28:25.212Z,993.76
2018-12-17T07:29:25.219Z,993.73
2018-12-17T07:30:25.184Z,993.71
2018-12-17T07:31:25.168Z,993.71
2018-12-17T07:32:25.167Z,993.77
2018-12-17T07:33:25.157Z,993.76
2018-12-17T07:34:25.238Z,993.80
2018-12-17T07:35:25.298Z,993.76
2018-12-17T07:36:25.101Z,993.81
2018-12-17T07:37:25.123Z,993.85
2018-12-17T07:38:25.082Z,993.86
2018-12-17T07:39:25.096Z,993.92
2018-12-17T07:40:25.063Z,993.94
2018-12-17T07:41:25.054Z,993.97
2018-12-17T07:42:25.040Z,993.97
2018-12-17T07:43:25.029Z,993.92
2018-12-17T07:44:25.048Z,993.98
2018-12-17T07:45:25.005Z,994.02
2018-12-17T07:46:24.993Z,994.04
2018-12-17T07:47:24.983Z,994.06
2018-12-17T07:48:24.975Z,994.03
2018-12-17T07:49:25.265Z,994.10
2018-12-17T07:50:24.958Z,994.05
2018-12-17T07:51:24.957Z,994.10
2018-12-17T07:52:24.974Z,994.12
2018-12-17T07:53:24.938Z,994.16
2018-12-17T07:54:24.931Z,994.13
2018-12-17T07:55:24.940Z,994.22
2018-12-17T07:56:24.888Z,994.22
2018-12-17T07:57:24.915Z,994.21
2018-12-17T07:58:24.872Z,994.23
2018-12-17T07:59:24.852Z,994.25
2018-12-17T08:00:24.906Z,994.25
2018-12-17T08:01:24.829Z,994.34
2018-12-17T08:02:24.821Z,994.32
2018-12-17T08:03:24.809Z,994.33
2018-12-17T08:04:24.803Z,994.35
2018-12-17T08:05:24.810Z,994.38
2018-12-17T08:06:24.792Z,994.40
2018-12-17T08:07:24.779Z,994.41
2018-12-17T08:08:24.753Z,994.42
2018-12-17T08:09:24.800Z,994.40
2018-12-17T08:10:24.736Z,994.41
2018-12-17T08:11:24.753Z,994.41
2018-12-17T08:12:24.734Z,994.43
2018-12-17T08:13:24.711Z,994.44
2018-12-17T08:14:24.693Z,994.41
2018-12-17T08:15:24.710Z,994.50
2018-12-17T08:16:24.696Z,994.47
2018-12-17T08:17:24.662Z,994.48
2018-12-17T08:18:24.667Z,994.50
2018-12-17T08:19:24.647Z,994.50
2018-12-17T08:20:24.647Z,994.54
2018-12-17T08:21:24.615Z,994.57
2018-12-17T08:22:24.607Z,994.52
2018-12-17T08:23:24.591Z,994.57
2018-12-17T08:24:24.594Z,994.60
2018-12-17T08:25:24.613Z,994.58
2018-12-17T08:26:24.556Z,994.56
2018-12-17T08:27:24.549Z,994.59
2018-12-17T08:28:24.617Z,994.60
2018-12-17T08:29:24.527Z,994.63
2018-12-17T08:30:24.561Z,994.65
2018-12-17T08:31:24.505Z,994.63
2018-12-17T08:32:24.493Z,994.70
2018-12-17T08:33:24.485Z,994.70
2018-12-17T08:34:24.470Z,994.71
2018-12-17T08:35:24.484Z,994.77
2018-12-17T08:36:24.454Z,994.78
2018-12-17T08:37:24.450Z,994.76
2018-12-17T08:38:24.502Z,994.77
2018-12-17T08:39:24.422Z,994.76
2018-12-17T08:40:24.427Z,994.80
2018-12-17T08:41:24.391Z,994.82
2018-12-17T08:42:24.399Z,994.75
2018-12-17T08:43:24.422Z,994.77
2018-12-17T08:44:24.359Z,994.78
2018-12-17T08:45:24.380Z,994.77
2018-12-17T08:46:24.358Z,994.76
2018-12-17T08:47:24.333Z,994.79
2018-12-17T08:48:24.325Z,994.78
2018-12-17T08:49:24.305Z,994.72
2018-12-17T08:50:24.348Z,994.75
2018-12-17T08:51:24.338Z,994.80
2018-12-17T08:52:24.279Z,994.86
2018-12-17T08:53:24.300Z,994.84
2018-12-17T08:54:24.268Z,994.88
2018-12-17T08:55:24.252Z,994.87
2018-12-17T08:56:24.232Z,994.94
2018-12-17T08:57:24.225Z,994.97
2018-12-17T08:58:24.247Z,994.88
2018-12-17T08:59:24.207Z,994.94
2018-12-17T09:00:24.188Z,994.94
2018-12-17T09:01:24.186Z,994.95
2018-12-17T09:02:24.163Z,994.98
2018-12-17T09:03:24.184Z,994.97
2018-12-17T09:04:24.143Z,994.97
2018-12-17T09:05:24.151Z,995.01
2018-12-17T09:06:24.121Z,994.97
2018-12-17T09:07:24.120Z,994.98
2018-12-17T09:08:24.138Z,995.01
2018-12-17T09:09:24.112Z,994.99
2018-12-17T09:10:24.079Z,995.06
2018-12-17T09:11:24.118Z,995.07
2018-12-17T09:12:24.095Z,995.08
2018-12-17T09:13:24.072Z,995.09
2018-12-17T09:14:24.048Z,995.14
2018-12-17T09:15:24.093Z,995.06
2018-12-17T09:16:24.010Z,995.15
2018-12-17T09:17:24.028Z,995.10
2018-12-17T09:18:23.988Z,995.17
2018-12-17T09:19:23.981Z,995.21
2018-12-17T09:20:23.975Z,995.23
2018-12-17T09:21:23.996Z,995.23
2018-12-17T09:22:23.951Z,995.25
2018-12-17T09:23:23.953Z,995.21
2018-12-17T09:24:23.929Z,995.18
2018-12-17T09:25:23.966Z,995.18
2018-12-17T09:26:23.978Z,995.22
2018-12-17T09:27:23.897Z,995.23
2018-12-17T09:28:23.893Z,995.28
2018-12-17T09:29:23.880Z,995.32
2018-12-17T09:30:23.951Z,995.32
2018-12-17T09:31:23.874Z,995.32
2018-12-17T09:32:23.842Z,995.36
2018-12-17T09:33:23.830Z,995.38
2018-12-17T09:34:23.819Z,995.35
2018-12-17T09:35:23.808Z,995.34
2018-12-17T09:36:23.827Z,995.40
2018-12-17T09:37:23.849Z,995.43
2018-12-17T09:38:23.801Z,995.46
2018-12-17T09:39:23.771Z,995.41
2018-12-17T09:40:23.763Z,995.43
2018-12-17T09:41:23.816Z,995.39
2018-12-17T09:42:23.938Z,995.42
2018-12-17T09:43:24.243Z,995.40
2018-12-17T09:44:23.719Z,995.39
2018-12-17T09:45:23.721Z,995.43
2018-12-17T09:46:23.736Z,995.45
2018-12-17T09:47:23.688Z,995.52
2018-12-17T09:48:23.688Z,995.55
2018-12-17T09:49:23.664Z,995.53
2018-12-17T09:50:23.674Z,995.54
2018-12-17T09:51:23.668Z,995.48
2018-12-17T09:52:23.637Z,995.51
2018-12-17T09:53:23.651Z,995.53
2018-12-17T09:54:23.626Z,995.51
2018-12-17T09:55:23.627Z,995.57
2018-12-17T09:56:23.600Z,995.59
2018-12-17T09:57:23.585Z,995.52
2018-12-17T09:58:23.603Z,995.59
2018-12-17T09:59:23.565Z,995.59
2018-12-17T10:00:25.620Z,995.68
2018-12-17T10:01:23.543Z,995.60
2018-12-17T10:02:23.537Z,995.55
2018-12-17T10:03:23.551Z,995.54
2018-12-17T10:04:23.508Z,995.55
2018-12-17T10:05:23.502Z,995.58
2018-12-17T10:06:23.492Z,995.58
2018-12-17T10:07:30.310Z,995.57
2018-12-17T10:08:24.528Z,995.57
2018-12-17T10:09:23.462Z,995.54
2018-12-17T10:10:23.452Z,995.53
2018-12-17T10:11:23.573Z,995.49
2018-12-17T10:12:23.468Z,995.51
2018-12-17T10:13:23.595Z,995.48
2018-12-17T10:14:23.405Z,995.50
2018-12-17T10:15:23.398Z,995.50
2018-12-17T10:16:23.388Z,995.47
2018-12-17T10:17:23.387Z,995.49
2018-12-17T10:18:23.400Z,995.49
2018-12-17T10:19:23.431Z,995.50
2018-12-17T10:20:23.345Z,995.44
2018-12-17T10:21:23.344Z,995.50
2018-12-17T10:22:23.366Z,995.52
2018-12-17T10:23:23.317Z,995.51
2018-12-17T10:24:23.317Z,995.52
2018-12-17T10:25:23.302Z,995.43
2018-12-17T10:26:23.290Z,995.41
2018-12-17T10:27:23.307Z,995.47
2018-12-17T10:28:23.262Z,995.48
2018-12-17T10:29:23.260Z,995.49
2018-12-17T10:30:23.268Z,995.46
2018-12-17T10:31:23.243Z,995.50
2018-12-17T10:32:23.226Z,995.54
2018-12-17T10:33:23.220Z,995.49
2018-12-17T10:34:23.204Z,995.52
2018-12-17T10:35:23.238Z,995.59
2018-12-17T10:36:23.190Z,995.50
2018-12-17T10:37:23.180Z,995.56
2018-12-17T10:38:23.199Z,995.54
2018-12-17T10:39:23.149Z,995.53
2018-12-17T10:40:23.164Z,995.52
2018-12-17T10:41:23.146Z,995.56
2018-12-17T10:42:23.125Z,995.57
2018-12-17T10:43:23.164Z,995.53
2018-12-17T10:44:23.134Z,995.51
2018-12-17T10:45:23.095Z,995.56
2018-12-17T10:46:23.080Z,995.61
2018-12-17T10:47:23.125Z,995.58
2018-12-17T10:48:23.090Z,995.60
2018-12-17T10:49:23.051Z,995.53
2018-12-17T10:50:23.036Z,995.59
2018-12-17T10:51:23.024Z,995.51
2018-12-17T10:52:23.044Z,995.57
2018-12-17T10:53:23.019Z,995.49
2018-12-17T10:54:23.024Z,995.54
2018-12-17T10:55:23.025Z,995.52
2018-12-17T10:56:23.013Z,995.49
2018-12-17T10:57:22.966Z,995.52
2018-12-17T10:58:22.953Z,995.51
2018-12-17T10:59:23.075Z,995.53
2018-12-17T11:00:22.973Z,995.52
2018-12-17T11:01:22.955Z,995.53
2018-12-17T11:02:22.910Z,995.63
2018-12-17T11:03:22.923Z,995.59
2018-12-17T11:04:22.896Z,995.59
2018-12-17T11:05:22.940Z,995.60
2018-12-17T11:06:22.874Z,995.64
2018-12-17T11:07:22.893Z,995.63
2018-12-17T11:08:22.867Z,995.60
2018-12-17T11:09:22.839Z,995.60
2018-12-17T11:10:22.836Z,995.62
2018-12-17T11:11:22.847Z,995.63
2018-12-17T11:12:22.876Z,995.71
2018-12-17T11:13:22.849Z,995.59
2018-12-17T11:14:22.792Z,995.68
2018-12-17T11:15:22.811Z,995.71
2018-12-17T11:16:22.867Z,995.69
2018-12-17T11:17:22.792Z,995.67
2018-12-17T11:18:22.769Z,995.66
2018-12-17T11:19:22.732Z,995.66
2018-12-17T11:20:22.750Z,995.71
2018-12-17T11:21:22.719Z,995.73
2018-12-17T11:22:22.713Z,995.75
2018-12-17T11:23:22.723Z,995.71
2018-12-17T11:24:22.698Z,995.75
2018-12-17T11:25:22.664Z,995.77
2018-12-17T11:26:22.655Z,995.69
2018-12-17T11:27:22.646Z,995.72
2018-12-17T11:28:22.679Z,995.73
2018-12-17T11:29:22.622Z,995.69
2018-12-17T11:30:22.622Z,995.72
2018-12-17T11:31:22.599Z,995.73
2018-12-17T11:32:22.588Z,995.62
2018-12-17T11:33:22.604Z,995.67
2018-12-17T11:34:22.565Z,995.69
2018-12-17T11:35:22.571Z,995.69
2018-12-17T11:36:22.543Z,995.74
2018-12-17T11:37:22.578Z,995.69
2018-12-17T11:38:22.520Z,995.71
2018-12-17T11:39:22.516Z,995.68
2018-12-17T11:40:22.500Z,995.68
2018-12-17T11:41:22.516Z,995.73
2018-12-17T11:42:22.508Z,995.73
2018-12-17T11:43:22.466Z,995.71
2018-12-17T11:44:22.467Z,995.66
2018-12-17T11:45:22.442Z,995.64
2018-12-17T11:46:22.438Z,995.68
2018-12-17T11:47:22.442Z,995.62
2018-12-17T11:48:22.410Z,995.66
2018-12-17T11:49:22.428Z,995.66
2018-12-17T11:50:22.418Z,995.65
2018-12-17T11:51:22.383Z,995.69
2018-12-17T11:52:22.384Z,995.69
2018-12-17T11:53:22.355Z,995.63
2018-12-17T11:54:22.370Z,995.63
2018-12-17T11:55:22.334Z,995.65
2018-12-17T11:56:22.330Z,995.73
2018-12-17T12:00:01.221Z,995.79
2018-12-17T12:00:40.025Z,995.75
2018-12-17T12:01:40.012Z,995.80
2018-12-17T12:02:40.022Z,995.86
2018-12-17T12:03:39.991Z,995.80
2018-12-17T12:04:39.978Z,995.85
2018-12-17T12:05:40.170Z,995.78
2018-12-17T12:06:39.957Z,995.86
2018-12-17T12:07:39.949Z,995.85
2018-12-17T12:08:39.957Z,995.85
2018-12-17T12:09:39.925Z,995.86
2018-12-17T12:10:39.979Z,995.82
2018-12-17T12:11:39.911Z,995.85
2018-12-17T12:12:40.013Z,995.85
2018-12-17T12:13:39.894Z,995.84
2018-12-17T12:14:39.880Z,995.82
2018-12-17T12:15:39.872Z,995.84
2018-12-17T12:16:39.860Z,995.89
2018-12-17T12:17:39.865Z,995.88
2018-12-17T12:18:39.835Z,995.89
2018-12-17T12:19:39.822Z,995.88
2018-12-17T12:20:39.806Z,995.87
2018-12-17T12:21:39.920Z,995.94
2018-12-17T12:22:39.789Z,995.92
2018-12-17T12:23:39.775Z,995.93
2018-12-17T12:24:39.765Z,995.87
2018-12-17T12:25:39.792Z,995.95
2018-12-17T12:26:39.745Z,995.92
2018-12-17T12:27:39.734Z,995.94
2018-12-17T12:28:39.757Z,995.92
2018-12-17T12:29:39.728Z,995.93
2018-12-17T12:30:39.701Z,995.89